Tuckerman, AR (72473)

03:05 AM CST am 24. Januar 2017 (GMT -0600)
Newport | | Change Station
aktive Warnung: Flood Warning

Höhe 240 ft 35.64 °N, 91.18 °W | Updated 9 minutes ago

Heiter
Heiter
38 °F
gefühlte 34 °F
N
5
Wind Wechselnd Wind aus Ost-Nordost

Heute
Max. -- | schwach -- °F
--% Regenrisiko
Gestern
Max. -- | schwach -- °F
Precip. -- inch
Druck 29.91 inch
Sichtweite 10.0 Meilen
Wolken Heiter
Windchill 34 °F
Taupunkt 37 °F
Feuchtigkeit 97%
Regen 0.00 inch
Schneehöhe Nicht verfügbar..
7:10 AM 5:24 PM
Letztes Viertel, 13% visible
METAR KM19 240856Z AUTO 06004KT 10SM CLR 03/03 A2989 RMK AO2 SLP128 6//// T00330028 50005 PNO $
Druck 29.91 inch
Sichtweite 10.0 Meilen
Wolken Heiter
Windchill 34 °F
Taupunkt 37 °F
Feuchtigkeit 97%
Regen 0.00 inch
Schneehöhe Nicht verfügbar..
7:10 AM 5:24 PM
Letztes Viertel, 13% visible
METAR KM19 240856Z AUTO 06004KT 10SM CLR 03/03 A2989 RMK AO2 SLP128 6//// T00330028 50005 PNO $

Get Your Daily Forecast Email!

Thanks for signing up!

Be on the lookout for a verification email in your inbox.

You'll start receiving the daily forecast at 8 AM.

×

10-Day Weather Forecast

Almanac

Astronomie

Jan. 24, 2017 Aufgang Untergang
Genaue Zeit
Bürgerliche Dämmerung
Nautische Dämmerung
Astronomische Dämmerung
Mond
Länge des sichtbaren Lichts
Tageslänge
Tomorrow will be .
, % of the Moon is Illuminated

Heutige Rekorde

State Highs State Lows

Community

WunderPhotos

Upload Photos

1,962,540 Fotos hochgeladen!

WunderBlog® & News

Nearby

Luftqualität

  Luftqualität LQ Index Schadstoff
Not available.

Schneehöhe

Station Depth Höhe

Erdbebenaktivität

Stadt Distance Mag. Time & Date
Minimum magnitude displayed is 2.5.

küstennahe Wassertemperaturen

Ort Temperatur

Stations

Wetterstationen in der Umgebung

Stationsstandort Temp. Windchill Taupunkt Feuchtigkeit Wind Precip. Höhe Aktualisiert Art
                   

Watches & Warnings

Flood Warning
Issued: 21:18 CST Jan. 23, 2017 – National Weather Service

The Flood Warning continues for
the Cache River near Patterson.
* Until further notice... or until the warning is cancelled.
* At 8:00 PM Monday the stage was 9.2 feet.
* Minor flooding is occurring and minor flooding is forecast.
* Flood stage is 9.0 feet.
* Forecast... the river will continue rising to near 9.2 feet by after
midnight tomorrow.
* Impacts at 9.0 feet... low swampy Timberland along the river begins
to flood. Flood gates should be closed and equipment moved out of
the low grounds along the river and tributaries.


             Fld observed forecast 6 am
location stg stg day time Tue Wed Thu Fri Sat

Cache River
Patterson 9 9.2 Mon 08 PM 9.2 9.2 9.1 9.1 9.1




Lat... Lon 3510 9133 3522 9128 3539 9123 3538 9113
3521 9117 3508 9122